Terminal Aerodrome Forecast
Issued by NWS Twin Cities, MN

Home | Current Version | Previous Version | Graphics & Text | Print | Product List | Glossary On
Versions: 1 2 3 4 5 6 7 8 9 10 11 12 13 14 15 16 17 18 19 20 21 22 23 24 25 26 27
000
FTUS43 KMPX 182300 RRA
TAFMSP
TAF
KMSP 182345Z 1900/2006 11013G20KT P6SM BKN120
     FM191000 14013G25KT P6SM VCSH SCT050 BKN100
     FM191300 17019G28KT P6SM BKN050 BKN100
     FM191800 19014G21KT P6SM VCSH SCT035 OVC060 PROB30 1919/1923
      5SM -SHRA OVC040
     FM200000 23007KT P6SM SCT060 BKN100=

USA.gov is the U.S. government's official web portal to all federal, state and local government web resources and services.